Time;durP1;ratioP1;P1;durP2;ratioP2;P2;SDS_P1;SDS_P2;PMS_P1;PMS_P2;Temp;Humidity;BMP_temperature;BMP_pressure;BME280_temperature;BME280_humidity;BME280_pressure;Samples;Min_cycle;Max_cycle;Signal;HPM_P1;HPM_P2
2021/09/13 00:00:39;;;;;;;10.45;6.20;;;17.30;87.60;;;;;;5043107;28;20087;-76
2021/09/13 00:03:05;;;;;;;8.43;5.72;;;17.20;87.50;;;;;;5049466;28;20084;-76
2021/09/13 00:05:31;;;;;;;8.73;5.82;;;17.20;87.50;;;;;;5051106;28;20085;-76
2021/09/13 00:07:56;;;;;;;8.43;5.65;;;17.20;87.60;;;;;;5015970;28;20043;-76
2021/09/13 00:10:23;;;;;;;8.65;5.57;;;17.20;87.60;;;;;;5029317;28;20036;-77
2021/09/13 00:12:48;;;;;;;10.93;6.03;;;17.20;87.50;;;;;;5036122;28;20056;-76
2021/09/13 00:15:14;;;;;;;9.38;5.43;;;17.20;87.40;;;;;;5037307;28;20530;-76
2021/09/13 00:17:39;;;;;;;5.28;4.72;;;17.20;87.30;;;;;;5029302;28;20025;-76
2021/09/13 00:20:06;;;;;;;8.85;5.65;;;17.20;87.40;;;;;;5050744;28;20025;-76
2021/09/13 00:22:32;;;;;;;8.07;5.88;;;17.20;87.50;;;;;;5052005;28;20116;-76
2021/09/13 00:24:58;;;;;;;10.15;5.90;;;17.20;87.60;;;;;;5045213;28;20474;-76
2021/09/13 00:27:23;;;;;;;7.93;5.40;;;17.10;87.60;;;;;;5014326;28;20439;-76
2021/09/13 00:29:49;;;;;;;10.25;6.30;;;17.10;87.70;;;;;;5052028;28;20504;-76
2021/09/13 00:32:14;;;;;;;8.07;5.90;;;17.10;87.70;;;;;;5053490;28;20433;-76
2021/09/13 00:34:40;;;;;;;9.02;5.40;;;17.10;87.80;;;;;;5031764;28;20033;-77
2021/09/13 00:37:06;;;;;;;8.43;6.40;;;17.10;88.00;;;;;;5051297;28;20033;-76
2021/09/13 00:39:32;;;;;;;11.80;6.45;;;17.10;88.00;;;;;;5049965;28;20536;-76
2021/09/13 00:41:57;;;;;;;6.80;5.95;;;17.10;88.00;;;;;;5033523;28;20378;-76
2021/09/13 00:44:24;;;;;;;11.15;5.72;;;17.10;88.40;;;;;;5050809;28;20029;-76
2021/09/13 00:46:49;;;;;;;7.80;5.32;;;17.10;87.90;;;;;;5035834;28;20037;-76
2021/09/13 00:49:15;;;;;;;7.47;6.07;;;17.00;87.90;;;;;;5050953;28;20032;-76
2021/09/13 00:51:41;;;;;;;7.78;6.05;;;17.00;88.10;;;;;;5033562;28;20037;-76
2021/09/13 00:54:07;;;;;;;10.15;6.00;;;17.00;88.30;;;;;;5050669;28;20051;-76
2021/09/13 00:56:33;;;;;;;9.00;6.05;;;17.00;88.20;;;;;;5033630;28;20490;-76
2021/09/13 00:58:59;;;;;;;8.30;5.82;;;17.00;87.90;;;;;;5052041;28;20037;-76
2021/09/13 01:01:24;;;;;;;12.88;6.22;;;17.00;87.90;;;;;;5044708;28;20112;-77
2021/09/13 01:03:50;;;;;;;9.10;6.32;;;16.90;88.00;;;;;;5015937;28;20632;-77
2021/09/13 01:06:16;;;;;;;10.88;6.70;;;16.90;88.10;;;;;;5030546;28;20465;-77
2021/09/13 01:08:43;;;;;;;9.85;6.95;;;16.90;88.20;;;;;;5044700;28;20028;-77
2021/09/13 01:11:10;;;;;;;7.70;5.90;;;16.90;88.30;;;;;;5049598;28;20437;-76
2021/09/13 01:13:35;;;;;;;10.82;7.43;;;16.90;88.30;;;;;;5049309;28;20023;-76
2021/09/13 01:16:05;;;;;;;8.38;6.53;;;16.80;88.10;;;;;;5010966;28;20104;-76
2021/09/13 01:18:31;;;;;;;8.02;6.78;;;16.80;88.30;;;;;;5033409;28;20075;-76
2021/09/13 01:20:57;;;;;;;7.93;7.13;;;16.70;88.40;;;;;;5049491;28;20020;-76
2021/09/13 01:23:26;;;;;;;9.70;7.78;;;16.60;88.60;;;;;;5039686;28;20037;-77
2021/09/13 01:25:52;;;;;;;;;;;16.60;88.70;;;;;;5051840;28;20595;-76
2021/09/13 01:28:18;;;;;;;9.48;7.45;;;16.50;88.60;;;;;;5050573;28;19912;-76
2021/09/13 01:30:43;;;;;;;9.50;8.25;;;16.40;88.90;;;;;;5016934;28;20427;-76
2021/09/13 01:33:09;;;;;;;12.63;8.50;;;16.40;89.10;;;;;;5014371;28;20038;-76
2021/09/13 01:35:35;;;;;;;15.25;9.23;;;16.30;89.10;;;;;;5057625;28;20044;-76
2021/09/13 01:38:00;;;;;;;10.70;9.60;;;16.30;89.30;;;;;;5033929;28;20048;-76
2021/09/13 01:40:26;;;;;;;15.82;9.15;;;16.20;89.30;;;;;;5025176;28;20432;-76
2021/09/13 01:42:51;;;;;;;9.73;8.75;;;16.20;89.40;;;;;;5051561;28;20041;-76
2021/09/13 01:45:17;;;;;;;11.75;9.60;;;16.10;89.40;;;;;;5051266;28;20029;-76
2021/09/13 01:47:43;;;;;;;12.32;9.20;;;16.10;89.50;;;;;;5033894;28;20120;-76
2021/09/13 01:50:09;;;;;;;16.55;10.18;;;16.00;89.50;;;;;;5051803;28;20025;-76
2021/09/13 01:52:35;;;;;;;14.82;10.48;;;16.00;89.50;;;;;;5016410;28;20026;-76
2021/09/13 01:55:00;;;;;;;13.35;9.88;;;16.00;89.70;;;;;;5051788;28;20029;-76
2021/09/13 01:57:26;;;;;;;9.98;8.90;;;15.90;89.80;;;;;;5034221;28;20386;-76
2021/09/13 01:59:52;;;;;;;10.82;9.40;;;15.80;89.90;;;;;;5037488;28;20025;-76
2021/09/13 02:02:17;;;;;;;13.02;10.20;;;15.80;90.00;;;;;;5034533;28;20052;-76
2021/09/13 02:04:43;;;;;;;12.77;9.63;;;15.80;90.00;;;;;;5028611;28;20122;-76
2021/09/13 02:07:08;;;;;;;15.48;9.77;;;15.70;90.10;;;;;;5033552;28;20129;-76
2021/09/13 02:09:34;;;;;;;14.75;9.40;;;15.70;90.10;;;;;;5050178;28;20044;-76
2021/09/13 02:12:00;;;;;;;12.27;10.00;;;15.70;90.20;;;;;;5048362;28;20021;-76
2021/09/13 02:14:25;;;;;;;11.93;9.35;;;15.70;90.20;;;;;;5016213;28;20045;-76
2021/09/13 02:16:51;;;;;;;13.75;10.30;;;15.60;90.20;;;;;;5049857;28;20037;-76
2021/09/13 02:19:16;;;;;;;12.57;10.02;;;15.70;90.20;;;;;;5035893;28;20131;-76
2021/09/13 02:21:42;;;;;;;10.80;8.32;;;15.60;90.20;;;;;;5020218;28;20021;-76
2021/09/13 02:24:07;;;;;;;11.73;9.05;;;15.60;90.30;;;;;;5050271;28;20124;-76
2021/09/13 02:26:33;;;;;;;14.73;8.77;;;15.60;90.30;;;;;;5053928;28;20063;-77
2021/09/13 02:28:59;;;;;;;10.25;9.25;;;15.60;90.20;;;;;;5019562;28;20405;-76
2021/09/13 02:31:26;;;;;;;14.40;9.50;;;15.60;90.20;;;;;;5036926;28;20475;-77
2021/09/13 02:33:52;;;;;;;16.35;10.38;;;15.60;90.20;;;;;;5055068;28;20472;-76
2021/09/13 02:36:18;;;;;;;12.43;10.10;;;15.50;90.10;;;;;;5055069;28;20029;-76
2021/09/13 02:38:43;;;;;;;15.30;10.50;;;15.50;90.20;;;;;;5048323;28;20025;-76
2021/09/13 02:41:09;;;;;;;14.20;9.43;;;15.50;90.20;;;;;;5045124;28;20033;-76
2021/09/13 02:43:34;;;;;;;12.57;10.40;;;15.40;90.20;;;;;;5044699;28;20025;-76
2021/09/13 02:46:01;;;;;;;14.80;10.68;;;15.40;90.20;;;;;;5034986;28;20029;-76
2021/09/13 02:48:26;;;;;;;11.68;9.27;;;15.30;90.30;;;;;;5035207;28;20025;-76
2021/09/13 02:50:52;;;;;;;11.65;9.55;;;15.30;90.30;;;;;;5017719;28;20090;-76
2021/09/13 02:53:18;;;;;;;13.65;10.52;;;15.30;90.40;;;;;;5036153;28;20033;-76
2021/09/13 02:55:43;;;;;;;11.52;10.32;;;15.20;90.30;;;;;;5017950;28;20115;-76
2021/09/13 02:58:09;;;;;;;16.13;10.55;;;15.20;90.30;;;;;;5039306;28;20033;-76
2021/09/13 03:00:34;;;;;;;12.25;10.77;;;15.20;90.30;;;;;;5052424;28;20041;-76
2021/09/13 03:03:00;;;;;;;13.48;12.05;;;15.20;90.60;;;;;;5033076;28;20064;-76
2021/09/13 03:05:25;;;;;;;13.52;11.52;;;15.10;90.40;;;;;;5028823;28;20030;-76
2021/09/13 03:07:51;;;;;;;17.38;11.25;;;15.10;90.40;;;;;;5012127;28;20037;-76
2021/09/13 03:10:17;;;;;;;15.65;10.70;;;15.10;90.40;;;;;;5050401;28;20125;-76
2021/09/13 03:12:42;;;;;;;17.08;11.77;;;15.10;90.40;;;;;;5028861;28;20040;-76
2021/09/13 03:15:09;;;;;;;12.82;11.38;;;15.10;90.50;;;;;;5031288;28;20133;-76
2021/09/13 03:17:35;;;;;;;14.23;10.90;;;15.00;90.50;;;;;;5032737;28;20049;-76
2021/09/13 03:20:00;;;;;;;13.07;11.02;;;15.00;90.50;;;;;;5029097;28;20502;-76
2021/09/13 03:22:26;;;;;;;16.98;12.30;;;15.00;90.50;;;;;;5016206;28;20533;-76
2021/09/13 03:24:52;;;;;;;15.88;12.63;;;15.00;90.50;;;;;;5031741;28;20036;-76
2021/09/13 03:27:17;;;;;;;16.15;12.32;;;15.00;90.50;;;;;;5016606;28;20040;-76
2021/09/13 03:29:43;;;;;;;18.30;11.65;;;15.00;90.50;;;;;;5031374;28;20147;-76
2021/09/13 03:32:08;;;;;;;15.18;11.85;;;14.90;90.40;;;;;;5004465;28;20022;-76
2021/09/13 03:34:34;;;;;;;19.77;12.13;;;14.90;90.50;;;;;;5007925;28;20471;-76
2021/09/13 03:37:02;;;;;;;15.13;11.32;;;14.90;90.50;;;;;;5014073;28;20125;-76
2021/09/13 03:39:27;;;;;;;14.95;12.60;;;14.90;90.50;;;;;;5032262;28;20571;-77
2021/09/13 03:41:53;;;;;;;16.17;11.18;;;14.80;90.50;;;;;;5033831;28;20041;-76
2021/09/13 03:44:19;;;;;;;18.17;11.48;;;14.80;90.50;;;;;;5011999;28;20108;-76
2021/09/13 03:46:44;;;;;;;16.17;11.68;;;14.80;90.50;;;;;;5029061;28;20084;-77
2021/09/13 03:49:10;;;;;;;15.10;11.25;;;14.80;90.50;;;;;;5030549;28;20045;-76
2021/09/13 03:51:35;;;;;;;13.20;11.80;;;14.80;90.50;;;;;;5015849;28;20037;-77
2021/09/13 03:54:01;;;;;;;14.75;11.55;;;14.70;90.50;;;;;;5033072;28;20068;-76
2021/09/13 03:56:27;;;;;;;12.43;10.40;;;14.70;90.50;;;;;;5032752;28;20107;-76
2021/09/13 03:58:53;;;;;;;14.27;11.68;;;14.70;90.50;;;;;;5033887;28;20057;-76
2021/09/13 04:01:19;;;;;;;15.18;11.15;;;14.60;90.50;;;;;;5032000;28;20119;-76
2021/09/13 04:03:48;;;;;;;18.98;12.32;;;14.70;90.50;;;;;;5029841;28;20144;-76
2021/09/13 04:06:25;;;;;;;14.23;12.75;;;14.60;90.50;;;;;;5033081;28;20032;-76
2021/09/13 04:11:45;;;;;;;18.65;12.55;;;14.60;90.50;;;;;;5020790;28;20029;-76
2021/09/13 04:14:11;;;;;;;14.98;13.23;;;14.60;90.80;;;;;;5032379;28;20398;-76
2021/09/13 04:16:37;;;;;;;18.95;13.15;;;14.50;90.60;;;;;;5030398;28;20030;-76
2021/09/13 04:19:02;;;;;;;15.30;12.23;;;14.50;90.60;;;;;;5028317;28;20026;-76
2021/09/13 04:21:28;;;;;;;19.90;13.25;;;14.50;90.90;;;;;;5010757;28;20026;-76
2021/09/13 04:23:54;;;;;;;19.10;13.82;;;14.50;90.60;;;;;;5045263;28;20175;-76
2021/09/13 04:26:19;;;;;;;15.15;13.52;;;14.50;90.60;;;;;;5011174;28;20026;-77
2021/09/13 04:28:45;;;;;;;17.95;13.13;;;14.40;90.60;;;;;;5013802;28;20029;-76
2021/09/13 04:31:10;;;;;;;16.05;13.45;;;14.40;90.60;;;;;;5031678;28;20041;-76
2021/09/13 04:33:36;;;;;;;25.83;17.10;;;14.40;90.60;;;;;;5035590;28;20043;-76
2021/09/13 04:36:02;;;;;;;24.08;15.95;;;14.30;90.70;;;;;;5012592;28;20065;-76
2021/09/13 04:38:28;;;;;;;17.95;13.75;;;14.40;90.90;;;;;;5031335;28;20034;-76
2021/09/13 04:40:54;;;;;;;23.33;15.35;;;14.30;90.80;;;;;;5030257;28;20030;-77
2021/09/13 04:43:19;;;;;;;19.15;15.55;;;14.30;90.80;;;;;;5033052;28;20476;-75
2021/09/13 04:45:45;;;;;;;26.88;15.45;;;14.30;90.80;;;;;;5026663;28;20056;-76
2021/09/13 04:48:11;;;;;;;19.50;13.60;;;14.30;90.80;;;;;;5031235;28;20049;-76
2021/09/13 04:50:36;;;;;;;19.08;12.52;;;14.30;90.90;;;;;;5011678;28;20462;-76
2021/09/13 04:53:02;;;;;;;16.27;13.00;;;14.30;90.80;;;;;;5020389;28;20119;-77
2021/09/13 04:55:27;;;;;;;17.00;13.40;;;14.30;90.70;;;;;;5012652;28;20032;-76
2021/09/13 04:57:53;;;;;;;20.42;14.00;;;14.30;90.60;;;;;;5027893;28;20025;-76
2021/09/13 05:00:21;;;;;;;15.35;12.85;;;14.30;90.60;;;;;;5030056;28;20021;-77
2021/09/13 05:02:47;;;;;;;19.17;14.07;;;14.20;90.60;;;;;;5045873;28;20544;-76
2021/09/13 05:05:13;;;;;;;16.70;13.38;;;14.20;90.60;;;;;;5016517;28;20041;-76
2021/09/13 05:07:38;;;;;;;16.80;13.50;;;14.10;90.70;;;;;;5029174;28;20503;-77
2021/09/13 05:10:05;;;;;;;18.83;13.82;;;14.10;90.80;;;;;;5027478;28;20041;-76
2021/09/13 05:12:30;;;;;;;16.50;14.02;;;14.10;90.80;;;;;;5039561;28;20129;-76
2021/09/13 05:14:56;;;;;;;16.67;13.13;;;14.00;90.80;;;;;;5049939;28;20108;-76
2021/09/13 05:17:21;;;;;;;18.77;13.90;;;14.00;90.80;;;;;;5046546;28;20021;-76
2021/09/13 05:19:48;;;;;;;17.65;14.05;;;14.00;90.80;;;;;;5034397;28;20079;-76
2021/09/13 05:22:14;;;;;;;16.35;13.95;;;14.00;90.70;;;;;;5036967;28;20087;-76
2021/09/13 05:24:40;;;;;;;18.00;13.35;;;14.00;90.70;;;;;;5032341;28;20024;-76
2021/09/13 05:27:05;;;;;;;17.83;13.23;;;14.00;90.70;;;;;;5017189;28;20478;-77
2021/09/13 05:29:31;;;;;;;19.92;14.77;;;13.90;90.70;;;;;;5007331;28;20033;-76
2021/09/13 05:31:57;;;;;;;20.13;13.90;;;13.90;90.80;;;;;;5033785;28;20036;-76
2021/09/13 05:34:22;;;;;;;23.23;15.90;;;13.90;90.90;;;;;;5050918;28;20123;-76
2021/09/13 05:36:48;;;;;;;21.40;15.20;;;13.90;90.90;;;;;;5049563;28;20033;-76
2021/09/13 05:39:13;;;;;;;21.63;14.50;;;13.90;90.90;;;;;;5028418;28;20163;-76
2021/09/13 05:41:39;;;;;;;19.65;13.52;;;13.90;90.90;;;;;;5049384;28;20440;-76
2021/09/13 05:44:06;;;;;;;17.25;13.13;;;14.00;91.00;;;;;;5029809;28;20041;-76
2021/09/13 05:46:32;;;;;;;16.52;13.27;;;14.00;90.90;;;;;;5045756;28;20028;-76
2021/09/13 05:48:57;;;;;;;16.42;13.25;;;14.00;90.90;;;;;;5034985;28;20028;-76
2021/09/13 05:51:23;;;;;;;19.88;15.50;;;14.00;91.00;;;;;;5035863;28;20063;-76
2021/09/13 05:53:49;;;;;;;24.05;14.18;;;14.00;91.00;;;;;;5036471;28;20060;-77
2021/09/13 05:56:14;;;;;;;19.02;14.23;;;14.10;91.00;;;;;;5037511;28;20048;-77
2021/09/13 05:58:40;;;;;;;15.88;13.98;;;14.10;91.00;;;;;;5050671;28;20134;-76
2021/09/13 06:01:06;;;;;;;17.63;14.40;;;14.20;91.10;;;;;;5035626;28;20068;-77
2021/09/13 06:03:32;;;;;;;18.35;15.50;;;14.20;91.00;;;;;;5052643;28;20095;-76
2021/09/13 06:05:58;;;;;;;18.02;14.23;;;14.20;91.00;;;;;;5016526;28;20059;-76
2021/09/13 06:08:24;;;;;;;18.88;14.30;;;14.30;91.10;;;;;;5015283;28;20060;-76
2021/09/13 06:10:50;;;;;;;16.42;14.73;;;14.30;91.10;;;;;;5034934;28;20401;-75
2021/09/13 06:13:15;;;;;;;19.92;14.55;;;14.40;91.20;;;;;;5053992;28;20028;-75
2021/09/13 06:15:41;;;;;;;23.58;16.42;;;14.40;91.20;;;;;;5058186;28;20025;-76
2021/09/13 06:18:08;;;;;;;28.65;17.38;;;14.50;91.20;;;;;;5047008;28;20424;-76
2021/09/13 06:20:34;;;;;;;22.52;16.30;;;14.50;91.20;;;;;;5033490;28;20466;-76
2021/09/13 06:23:00;;;;;;;22.65;17.23;;;14.60;91.30;;;;;;5053095;28;20108;-75
2021/09/13 06:25:25;;;;;;;22.90;17.45;;;14.70;91.20;;;;;;5018703;28;20483;-76
2021/09/13 06:27:51;;;;;;;21.95;17.77;;;14.80;91.20;;;;;;5036740;28;20033;-76
2021/09/13 06:30:17;;;;;;;27.70;17.73;;;14.80;91.20;;;;;;5052596;28;20029;-76
2021/09/13 06:32:43;;;;;;;31.75;19.00;;;14.90;91.20;;;;;;5034853;28;20036;-76
2021/09/13 06:35:09;;;;;;;29.17;18.23;;;15.00;91.30;;;;;;5015806;28;20030;-76
2021/09/13 06:37:35;;;;;;;30.17;20.98;;;15.00;91.30;;;;;;5042370;28;20053;-76
2021/09/13 06:40:00;;;;;;;30.25;21.73;;;15.00;91.30;;;;;;5037618;28;20045;-76
2021/09/13 06:42:26;;;;;;;28.48;20.13;;;15.10;91.40;;;;;;5055524;28;20489;-76
2021/09/13 06:44:52;;;;;;;28.30;19.35;;;15.10;91.30;;;;;;5055552;28;20462;-75
2021/09/13 06:49:56;;;;;;;31.65;20.55;;;15.20;91.30;;;;;;5035036;28;20112;-75
2021/09/13 06:52:22;;;;;;;29.83;20.30;;;15.20;91.30;;;;;;5033837;28;20121;-77
2021/09/13 06:54:47;;;;;;;32.85;19.30;;;15.30;91.30;;;;;;5022281;28;20039;-75
2021/09/13 06:57:13;;;;;;;37.50;20.90;;;15.40;91.40;;;;;;5037272;28;20025;-75
2021/09/13 06:59:41;;;;;;;27.48;18.42;;;15.40;91.30;;;;;;5055069;28;20032;-75
2021/09/13 07:02:08;;;;;;;29.10;18.17;;;15.40;91.30;;;;;;5054675;28;20128;-75
2021/09/13 07:04:33;;;;;;;33.20;18.60;;;15.40;91.30;;;;;;5054176;28;20059;-75
2021/09/13 07:06:59;;;;;;;27.90;17.30;;;15.60;91.20;;;;;;5036445;28;20068;-75
2021/09/13 07:09:24;;;;;;;25.70;18.00;;;15.70;91.10;;;;;;5053798;28;20040;-76
2021/09/13 07:11:50;;;;;;;23.60;14.60;;;15.80;90.90;;;;;;5036845;28;20474;-75
2021/09/13 07:14:16;;;;;;;23.83;13.27;;;15.90;90.80;;;;;;5035208;28;20040;-75
2021/09/13 07:16:41;;;;;;;20.40;14.07;;;16.00;90.70;;;;;;5053580;28;20119;-75
2021/09/13 07:19:07;;;;;;;18.58;12.90;;;16.10;90.50;;;;;;5021298;28;20111;-75
2021/09/13 07:21:33;;;;;;;22.48;12.35;;;16.20;90.40;;;;;;5042026;28;20029;-76
2021/09/13 07:23:59;;;;;;;13.27;10.25;;;16.30;90.30;;;;;;5019630;28;20033;-76
2021/09/13 07:26:25;;;;;;;14.88;10.73;;;16.40;90.20;;;;;;5054582;28;20040;-77
2021/09/13 07:28:51;;;;;;;19.35;10.07;;;16.50;90.00;;;;;;5053200;28;20033;-77
2021/09/13 07:31:16;;;;;;;15.07;9.32;;;16.60;89.70;;;;;;5053266;28;20037;-76
2021/09/13 07:33:42;;;;;;;13.82;9.00;;;16.70;89.20;;;;;;5036537;28;20043;-77
2021/09/13 07:36:08;;;;;;;12.10;7.78;;;16.80;89.00;;;;;;5054272;28;20025;-76
2021/09/13 07:38:33;;;;;;;12.07;6.75;;;16.90;88.60;;;;;;5036306;28;20029;-76
2021/09/13 07:40:59;;;;;;;10.30;5.70;;;17.00;88.30;;;;;;5036239;28;20029;-76
2021/09/13 07:43:25;;;;;;;15.15;6.18;;;17.10;88.10;;;;;;5053175;28;20056;-76
2021/09/13 07:45:50;;;;;;;14.15;6.43;;;17.20;88.00;;;;;;5036390;28;20413;-76
2021/09/13 07:48:17;;;;;;;10.27;5.55;;;17.40;87.80;;;;;;5053713;28;20084;-77
2021/09/13 07:50:44;;;;;;;10.90;5.72;;;17.50;87.40;;;;;;5031674;28;20082;-76
2021/09/13 07:53:10;;;;;;;11.52;5.63;;;17.70;86.70;;;;;;5052252;28;20050;-76
2021/09/13 07:55:36;;;;;;;8.75;4.68;;;17.80;86.00;;;;;;5049386;28;20029;-76
2021/09/13 07:58:02;;;;;;;8.25;4.40;;;17.90;85.40;;;;;;5036149;28;20032;-77
2021/09/13 08:00:27;;;;;;;12.52;5.15;;;18.00;85.00;;;;;;5029596;28;20053;-76
2021/09/13 08:02:53;;;;;;;7.20;4.03;;;18.00;84.70;;;;;;5035559;28;20130;-77
2021/09/13 08:05:19;;;;;;;9.20;3.65;;;18.20;84.60;;;;;;5034128;28;20613;-76
2021/09/13 08:07:45;;;;;;;12.05;3.78;;;18.30;83.90;;;;;;5052481;28;20029;-76
2021/09/13 08:10:11;;;;;;;8.85;3.78;;;18.30;83.50;;;;;;5052801;28;20033;-76
2021/09/13 08:12:36;;;;;;;7.88;3.47;;;18.40;83.20;;;;;;5018993;28;20039;-76
2021/09/13 08:15:02;;;;;;;7.65;3.83;;;18.50;82.70;;;;;;5053227;28;20394;-77
2021/09/13 08:17:28;;;;;;;9.02;3.70;;;18.70;82.40;;;;;;5051913;28;20027;-76
2021/09/13 08:19:54;;;;;;;5.93;3.88;;;18.80;81.80;;;;;;5035253;28;20037;-76
2021/09/13 08:22:19;;;;;;;8.63;3.70;;;18.90;81.30;;;;;;5035598;28;20461;-76
2021/09/13 08:24:45;;;;;;;9.05;3.22;;;19.00;79.80;;;;;;5052245;28;20037;-76
2021/09/13 08:27:11;;;;;;;12.38;3.38;;;19.00;79.90;;;;;;5052109;28;20036;-76
2021/09/13 08:29:36;;;;;;;8.40;2.20;;;19.10;80.00;;;;;;5053433;28;20039;-76
2021/09/13 08:32:02;;;;;;;8.75;2.50;;;19.20;79.90;;;;;;5053137;28;20071;-76
2021/09/13 08:34:28;;;;;;;8.30;2.75;;;19.30;79.60;;;;;;5053038;28;20478;-76
2021/09/13 08:36:54;;;;;;;7.25;2.85;;;19.40;79.30;;;;;;5031778;28;20091;-76
2021/09/13 08:39:19;;;;;;;7.28;2.53;;;19.50;79.10;;;;;;5031979;28;20056;-76
2021/09/13 08:41:46;;;;;;;6.53;2.00;;;19.50;78.70;;;;;;5031254;28;20359;-76
2021/09/13 08:44:14;;;;;;;7.47;2.63;;;19.50;78.10;;;;;;5037454;28;20039;-77
2021/09/13 08:46:46;;;;;;;;;;;19.50;78.50;;;;;;5066314;28;20043;-73
2021/09/13 08:49:26;;;;;;;7.07;2.75;;;19.50;78.00;;;;;;5046846;28;19909;-73
2021/09/13 08:51:51;;;;;;;11.70;2.50;;;19.40;78.50;;;;;;5032924;28;20115;-73
2021/09/13 08:54:17;;;;;;;5.38;2.42;;;19.50;79.20;;;;;;5045975;28;20509;-73
2021/09/13 08:56:46;;;;;;;7.47;2.20;;;19.50;78.30;;;;;;5028856;28;20031;-73
2021/09/13 08:59:17;;;;;;;7.18;2.20;;;19.60;78.40;;;;;;5046885;28;20447;-73
2021/09/13 09:01:44;;;;;;;5.50;2.47;;;19.70;78.40;;;;;;5047398;28;20045;-73
2021/09/13 09:04:14;;;;;;;7.45;2.90;;;19.80;78.10;;;;;;5047219;28;20037;-72
2021/09/13 09:06:42;;;;;;;6.65;2.55;;;20.00;77.50;;;;;;5047719;28;20032;-73
2021/09/13 09:09:22;;;;;;;9.13;2.47;;;20.00;77.40;;;;;;5047287;28;20501;-73
2021/09/13 09:12:08;;;;;;;4.85;2.10;;;20.10;76.40;;;;;;5028594;28;20394;-73
2021/09/13 09:14:43;;;;;;;8.05;2.50;;;20.10;76.40;;;;;;5029007;28;20029;-73
2021/09/13 09:17:27;;;;;;;5.55;2.45;;;20.00;75.60;;;;;;5046295;28;20036;-72
2021/09/13 09:20:05;;;;;;;5.75;2.30;;;20.00;76.10;;;;;;5047084;28;20049;-73
2021/09/13 09:22:32;;;;;;;7.72;2.15;;;19.90;76.10;;;;;;5046657;28;20109;-72
2021/09/13 09:24:58;;;;;;;6.13;2.15;;;20.00;76.50;;;;;;5046630;28;20033;-72
2021/09/13 09:27:26;;;;;;;4.75;1.70;;;20.10;76.30;;;;;;5045789;28;20035;-72
2021/09/13 09:29:52;;;;;;;7.10;1.70;;;20.20;75.40;;;;;;5028307;28;20051;-73
2021/09/13 09:32:26;;;;;;;4.65;1.65;;;20.20;75.10;;;;;;5045857;28;20123;-73
2021/09/13 09:34:54;;;;;;;9.23;1.60;;;20.20;75.10;;;;;;5045395;28;20029;-73
2021/09/13 09:37:24;;;;;;;5.53;1.40;;;20.40;75.00;;;;;;5046996;28;20033;-73
2021/09/13 09:40:02;;;;;;;4.75;1.33;;;20.50;74.20;;;;;;5029727;28;20029;-73
2021/09/13 09:42:36;;;;;;;2.80;1.15;;;20.60;73.50;;;;;;5047123;28;20021;-73
2021/09/13 09:45:23;;;;;;;2.78;1.00;;;20.60;73.30;;;;;;5046455;28;20486;-72
2021/09/13 09:48:09;;;;;;;4.22;1.00;;;20.60;72.70;;;;;;5046944;28;20025;-73
2021/09/13 09:50:34;;;;;;;6.07;1.15;;;20.60;71.60;;;;;;5029634;28;20029;-72
2021/09/13 09:53:17;;;;;;;4.00;1.20;;;20.60;72.30;;;;;;5046411;28;20434;-72
2021/09/13 09:55:49;;;;;;;2.53;0.70;;;20.80;71.60;;;;;;5028133;28;20470;-73
2021/09/13 09:58:14;;;;;;;4.32;1.10;;;20.90;71.20;;;;;;5028189;28;20043;-73
2021/09/13 10:00:43;;;;;;;3.13;1.10;;;20.90;70.40;;;;;;5029504;28;20021;-73
2021/09/13 10:03:08;;;;;;;;;;;21.00;71.10;;;;;;5029270;28;20049;-73
2021/09/13 10:05:35;;;;;;;3.80;1.30;;;21.10;71.10;;;;;;5046971;28;20437;-73
2021/09/13 10:08:01;;;;;;;7.55;1.60;;;21.20;71.80;;;;;;5028502;28;20033;-73
2021/09/13 10:10:31;;;;;;;6.57;1.20;;;21.10;70.80;;;;;;5029171;28;20515;-73
2021/09/13 10:13:00;;;;;;;4.80;0.90;;;21.10;71.00;;;;;;5044973;28;20037;-73
2021/09/13 10:15:26;;;;;;;5.07;1.20;;;21.10;71.10;;;;;;5027608;28;20037;-73
2021/09/13 10:17:52;;;;;;;4.72;1.30;;;21.20;70.80;;;;;;5046468;28;20029;-73
2021/09/13 10:20:21;;;;;;;5.65;1.13;;;21.20;70.00;;;;;;5028697;28;20371;-73
2021/09/13 10:22:50;;;;;;;4.55;1.23;;;21.20;69.40;;;;;;5045146;28;21075;-73
2021/09/13 10:25:17;;;;;;;5.05;1.20;;;21.30;69.90;;;;;;5049709;28;20033;-73
2021/09/13 10:27:47;;;;;;;5.85;1.25;;;21.40;70.70;;;;;;5050423;28;20120;-73
2021/09/13 10:30:24;;;;;;;4.85;1.00;;;21.40;70.00;;;;;;5048839;28;20033;-73
2021/09/13 10:32:51;;;;;;;2.90;0.90;;;21.40;70.30;;;;;;5032412;28;20029;-73
2021/09/13 10:35:19;;;;;;;4.28;0.93;;;21.40;70.30;;;;;;5049339;28;20021;-73
2021/09/13 10:37:48;;;;;;;2.35;1.00;;;21.50;69.30;;;;;;5049941;28;20218;-73
2021/09/13 10:40:25;;;;;;;;;;;21.60;68.30;;;;;;5047542;28;20025;-73
2021/09/13 10:42:56;;;;;;;4.28;1.15;;;21.60;67.70;;;;;;5050803;28;19909;-73
2021/09/13 10:45:24;;;;;;;4.63;1.17;;;21.50;67.50;;;;;;5064639;28;20086;-73
2021/09/13 10:47:59;;;;;;;3.03;1.02;;;21.50;68.00;;;;;;5045916;28;20449;-73
2021/09/13 10:50:32;;;;;;;2.90;0.88;;;21.50;68.50;;;;;;5034890;28;20037;-73
2021/09/13 10:52:59;;;;;;;5.18;1.10;;;21.60;68.20;;;;;;5044723;28;20067;-72
2021/09/13 10:55:41;;;;;;;9.30;1.20;;;21.50;67.60;;;;;;5052620;28;20021;-72
2021/09/13 10:58:34;;;;;;;4.03;0.90;;;21.60;67.30;;;;;;5038382;28;20028;-73
2021/09/13 11:01:06;;;;;;;7.97;1.42;;;21.60;67.60;;;;;;5052235;28;20500;-73
2021/09/13 11:03:36;;;;;;;4.72;1.40;;;21.70;68.00;;;;;;5053631;28;20055;-74
2021/09/13 11:06:04;;;;;;;6.20;1.10;;;21.80;69.10;;;;;;5035354;28;20036;-73
2021/09/13 11:08:31;;;;;;;6.18;1.08;;;21.80;67.80;;;;;;5053798;28;20477;-73
2021/09/13 11:10:57;;;;;;;5.50;1.17;;;22.00;67.00;;;;;;5053417;28;20045;-73
2021/09/13 11:13:23;;;;;;;4.82;1.23;;;22.00;66.40;;;;;;5053476;28;20056;-73
2021/09/13 11:15:52;;;;;;;4.80;1.33;;;22.10;65.50;;;;;;5051797;28;20064;-73
2021/09/13 11:18:41;;;;;;;4.80;1.10;;;22.10;64.20;;;;;;5052365;28;20071;-73
2021/09/13 11:21:29;;;;;;;3.97;1.02;;;22.10;64.80;;;;;;5053486;28;20040;-73
2021/09/13 11:24:05;;;;;;;7.00;1.30;;;22.10;64.60;;;;;;5053469;28;20028;-74
2021/09/13 11:26:31;;;;;;;4.00;1.08;;;22.10;63.60;;;;;;5052896;28;20040;-73
2021/09/13 11:29:00;;;;;;;2.92;1.10;;;22.10;63.30;;;;;;5069833;28;20032;-73
2021/09/13 11:31:38;;;;;;;3.92;1.08;;;22.20;62.60;;;;;;5058564;28;20040;-73
2021/09/13 11:34:31;;;;;;;8.27;1.20;;;22.20;62.80;;;;;;5066631;28;20031;-73
2021/09/13 11:37:01;;;;;;;2.28;1.00;;;22.30;62.50;;;;;;5055674;28;20020;-73
2021/09/13 11:39:32;;;;;;;5.60;1.00;;;22.30;61.70;;;;;;5063998;28;20017;-73
2021/09/13 11:42:07;;;;;;;4.68;0.85;;;22.40;62.00;;;;;;5073219;28;20067;-73
2021/09/13 11:45:01;;;;;;;3.03;0.60;;;22.40;60.90;;;;;;5067544;28;20028;-73
2021/09/13 11:47:28;;;;;;;5.53;1.05;;;22.40;59.00;;;;;;5041706;28;20039;-73
2021/09/13 11:49:56;;;;;;;2.22;0.93;;;22.40;58.70;;;;;;5053264;28;20470;-74
2021/09/13 11:52:28;;;;;;;5.13;1.10;;;22.40;59.30;;;;;;5033821;28;20071;-73
2021/09/13 11:54:54;;;;;;;4.82;1.02;;;22.50;61.00;;;;;;5034768;28;20060;-73
2021/09/13 11:57:30;;;;;;;4.68;1.00;;;22.60;61.60;;;;;;5035192;28;20053;-74
2021/09/13 12:00:06;;;;;;;4.18;0.90;;;22.60;62.00;;;;;;5052537;28;20033;-73
2021/09/13 12:02:32;;;;;;;3.28;1.08;;;22.70;61.60;;;;;;5034716;28;20127;-74
2021/09/13 12:05:25;;;;;;;1.83;0.90;;;22.70;60.50;;;;;;5052884;28;20053;-74
2021/09/13 12:07:52;;;;;;;3.60;1.00;;;22.70;60.80;;;;;;5052240;28;20040;-74
2021/09/13 12:10:36;;;;;;;3.13;1.10;;;22.70;59.90;;;;;;5052957;28;20025;-73
2021/09/13 12:13:07;;;;;;;2.42;1.00;;;22.60;59.60;;;;;;5052874;28;20494;-74
2021/09/13 12:15:33;;;;;;;3.08;1.10;;;22.60;59.80;;;;;;5052666;28;20032;-74
2021/09/13 12:18:04;;;;;;;2.47;1.10;;;22.60;60.40;;;;;;5052417;28;20037;-73
2021/09/13 12:20:38;;;;;;;3.25;1.25;;;22.60;60.80;;;;;;5052664;28;20032;-73
2021/09/13 12:23:25;;;;;;;3.63;1.30;;;22.70;61.70;;;;;;5034717;28;20430;-74
2021/09/13 12:26:03;;;;;;;4.18;1.23;;;22.70;61.80;;;;;;5052466;28;20058;-73
2021/09/13 12:28:33;;;;;;;4.60;1.50;;;22.80;61.70;;;;;;5052255;28;20028;-73
2021/09/13 12:31:01;;;;;;;3.22;1.40;;;22.80;62.30;;;;;;5052151;28;20033;-74
2021/09/13 12:33:46;;;;;;;5.05;1.70;;;22.90;61.50;;;;;;5033798;28;20035;-73
2021/09/13 12:36:17;;;;;;;1.70;1.30;;;22.90;61.30;;;;;;5052047;28;20039;-73
2021/09/13 12:38:46;;;;;;;2.58;1.58;;;23.00;60.80;;;;;;5034327;28;20023;-74
2021/09/13 12:41:12;;;;;;;5.97;1.30;;;23.00;60.40;;;;;;5033449;28;20417;-73
2021/09/13 12:43:47;;;;;;;5.35;1.45;;;23.10;60.00;;;;;;5051952;28;20034;-73
2021/09/13 12:46:15;;;;;;;5.72;1.80;;;23.10;59.70;;;;;;5034333;28;20039;-74